sensor_id;sensor_type;location;lat;lon;timestamp;pressure;altitude;pressure_sealevel;temperature;humidity
7918;BME280;4004;42.624;23.386;2023-03-01T00:01:38;94636.31;;;4.94;100.00
7918;BME280;4004;42.624;23.386;2023-03-01T00:04:05;94638.50;;;4.92;100.00
7918;BME280;4004;42.624;23.386;2023-03-01T00:06:32;94627.06;;;4.91;100.00
7918;BME280;4004;42.624;23.386;2023-03-01T00:08:59;94624.22;;;4.88;100.00
7918;BME280;4004;42.624;23.386;2023-03-01T00:11:26;94636.13;;;4.90;100.00
7918;BME280;4004;42.624;23.386;2023-03-01T00:13:59;94634.63;;;4.98;100.00
7918;BME280;4004;42.624;23.386;2023-03-01T00:16:28;94628.47;;;4.97;100.00
7918;BME280;4004;42.624;23.386;2023-03-01T00:18:55;94629.88;;;4.95;100.00
7918;BME280;4004;42.624;23.386;2023-03-01T00:21:22;94613.25;;;4.89;100.00
7918;BME280;4004;42.624;23.386;2023-03-01T00:23:50;94604.91;;;4.82;100.00
7918;BME280;4004;42.624;23.386;2023-03-01T00:26:19;94598.63;;;4.78;100.00
7918;BME280;4004;42.624;23.386;2023-03-01T00:28:46;94592.97;;;4.80;100.00
7918;BME280;4004;42.624;23.386;2023-03-01T00:31:16;94599.41;;;4.78;100.00
7918;BME280;4004;42.624;23.386;2023-03-01T00:33:43;94592.94;;;4.71;100.00
7918;BME280;4004;42.624;23.386;2023-03-01T00:36:12;94591.72;;;4.77;100.00
7918;BME280;4004;42.624;23.386;2023-03-01T00:38:41;94579.03;;;4.74;100.00
7918;BME280;4004;42.624;23.386;2023-03-01T00:41:10;94587.00;;;4.74;100.00
7918;BME280;4004;42.624;23.386;2023-03-01T00:43:37;94594.53;;;4.72;100.00
7918;BME280;4004;42.624;23.386;2023-03-01T00:46:05;94593.84;;;4.66;100.00
7918;BME280;4004;42.624;23.386;2023-03-01T00:48:34;94587.78;;;4.74;100.00
7918;BME280;4004;42.624;23.386;2023-03-01T00:51:05;94583.53;;;4.65;100.00
7918;BME280;4004;42.624;23.386;2023-03-01T00:53:32;94588.22;;;4.68;100.00
7918;BME280;4004;42.624;23.386;2023-03-01T00:55:59;94585.56;;;4.68;100.00
7918;BME280;4004;42.624;23.386;2023-03-01T00:58:26;94571.28;;;4.64;100.00
7918;BME280;4004;42.624;23.386;2023-03-01T01:00:53;94592.28;;;4.65;100.00
7918;BME280;4004;42.624;23.386;2023-03-01T01:03:20;94584.94;;;4.71;100.00
7918;BME280;4004;42.624;23.386;2023-03-01T01:05:48;94592.63;;;4.72;100.00
7918;BME280;4004;42.624;23.386;2023-03-01T01:08:15;94579.50;;;4.76;100.00
7918;BME280;4004;42.624;23.386;2023-03-01T01:10:43;94584.03;;;4.75;100.00
7918;BME280;4004;42.624;23.386;2023-03-01T01:13:10;94584.81;;;4.76;100.00
7918;BME280;4004;42.624;23.386;2023-03-01T01:15:38;94575.25;;;4.75;100.00
7918;BME280;4004;42.624;23.386;2023-03-01T01:18:05;94579.50;;;4.76;100.00
7918;BME280;4004;42.624;23.386;2023-03-01T01:20:32;94581.06;;;4.77;100.00
7918;BME280;4004;42.624;23.386;2023-03-01T01:23:00;94585.13;;;4.74;100.00
7918;BME280;4004;42.624;23.386;2023-03-01T01:25:27;94583.72;;;4.77;100.00
7918;BME280;4004;42.624;23.386;2023-03-01T01:27:53;94584.22;;;4.79;100.00
7918;BME280;4004;42.624;23.386;2023-03-01T01:30:20;94588.56;;;4.75;100.00
7918;BME280;4004;42.624;23.386;2023-03-01T01:32:47;94584.03;;;4.75;100.00
7918;BME280;4004;42.624;23.386;2023-03-01T01:35:14;94574.78;;;4.73;100.00
7918;BME280;4004;42.624;23.386;2023-03-01T01:37:40;94590.75;;;4.73;100.00
7918;BME280;4004;42.624;23.386;2023-03-01T01:40:11;94589.97;;;4.72;100.00
7918;BME280;4004;42.624;23.386;2023-03-01T01:42:37;94579.03;;;4.74;100.00
7918;BME280;4004;42.624;23.386;2023-03-01T01:45:32;94577.63;;;4.76;100.00
7918;BME280;4004;42.624;23.386;2023-03-01T01:48:03;94583.44;;;4.78;100.00
7918;BME280;4004;42.624;23.386;2023-03-01T01:50:33;94571.84;;;4.83;100.00
7918;BME280;4004;42.624;23.386;2023-03-01T01:53:06;94577.03;;;4.88;100.00
7918;BME280;4004;42.624;23.386;2023-03-01T01:55:37;94563.72;;;4.88;100.00
7918;BME280;4004;42.624;23.386;2023-03-01T01:58:08;94572.97;;;4.91;100.00
7918;BME280;4004;42.624;23.386;2023-03-01T02:00:37;94572.63;;;4.84;100.00
7918;BME280;4004;42.624;23.386;2023-03-01T02:03:08;94578.13;;;4.87;100.00
7918;BME280;4004;42.624;23.386;2023-03-01T02:05:39;94570.16;;;4.87;100.00
7918;BME280;4004;42.624;23.386;2023-03-01T02:08:11;94561.97;;;4.84;100.00
7918;BME280;4004;42.624;23.386;2023-03-01T02:10:41;94568.72;;;4.81;100.00
7918;BME280;4004;42.624;23.386;2023-03-01T02:13:08;94564.44;;;4.80;100.00
7918;BME280;4004;42.624;23.386;2023-03-01T02:15:38;94556.94;;;4.82;100.00
7918;BME280;4004;42.624;23.386;2023-03-01T02:18:07;94558.06;;;4.81;100.00
7918;BME280;4004;42.624;23.386;2023-03-01T02:20:38;94569.00;;;4.80;100.00
7918;BME280;4004;42.624;23.386;2023-03-01T02:23:07;94569.91;;;4.75;100.00
7918;BME280;4004;42.624;23.386;2023-03-01T02:25:40;94570.88;;;4.79;100.00
7918;BME280;4004;42.624;23.386;2023-03-01T02:28:21;94573.06;;;4.77;100.00
7918;BME280;4004;42.624;23.386;2023-03-01T02:30:49;94569.16;;;4.74;100.00
7918;BME280;4004;42.624;23.386;2023-03-01T02:33:36;94571.81;;;4.74;100.00
7918;BME280;4004;42.624;23.386;2023-03-01T02:36:06;94566.78;;;4.73;100.00
7918;BME280;4004;42.624;23.386;2023-03-01T02:38:33;94582.47;;;4.74;100.00
7918;BME280;4004;42.624;23.386;2023-03-01T02:41:02;94581.19;;;4.72;100.00
7918;BME280;4004;42.624;23.386;2023-03-01T02:43:32;94571.13;;;4.69;100.00
7918;BME280;4004;42.624;23.386;2023-03-01T02:46:03;94577.88;;;4.66;100.00
7918;BME280;4004;42.624;23.386;2023-03-01T02:48:39;94579.94;;;4.69;100.00
7918;BME280;4004;42.624;23.386;2023-03-01T02:51:11;94582.91;;;4.68;100.00
7918;BME280;4004;42.624;23.386;2023-03-01T02:53:49;94576.91;;;4.62;100.00
7918;BME280;4004;42.624;23.386;2023-03-01T02:56:20;94563.09;;;4.60;100.00
7918;BME280;4004;42.624;23.386;2023-03-01T02:58:48;94540.00;;;4.38;100.00
7918;BME280;4004;42.624;23.386;2023-03-01T03:01:17;94567.97;;;4.58;100.00
7918;BME280;4004;42.624;23.386;2023-03-01T03:03:45;94582.38;;;4.57;100.00
7918;BME280;4004;42.624;23.386;2023-03-01T03:06:12;94567.06;;;4.63;100.00
7918;BME280;4004;42.624;23.386;2023-03-01T03:08:39;94563.28;;;4.64;100.00
7918;BME280;4004;42.624;23.386;2023-03-01T03:11:06;94568.13;;;4.62;100.00
7918;BME280;4004;42.624;23.386;2023-03-01T03:13:33;94571.00;;;4.65;100.00
7918;BME280;4004;42.624;23.386;2023-03-01T03:16:02;94570.38;;;4.68;100.00
7918;BME280;4004;42.624;23.386;2023-03-01T03:18:30;94567.56;;;4.73;100.00
7918;BME280;4004;42.624;23.386;2023-03-01T03:20:56;94573.03;;;4.68;100.00
7918;BME280;4004;42.624;23.386;2023-03-01T03:23:23;94575.97;;;4.67;100.00
7918;BME280;4004;42.624;23.386;2023-03-01T03:25:50;94583.38;;;4.70;100.00
7918;BME280;4004;42.624;23.386;2023-03-01T03:28:18;94578.66;;;4.67;100.00
7918;BME280;4004;42.624;23.386;2023-03-01T03:30:45;94574.72;;;4.64;100.00
7918;BME280;4004;42.624;23.386;2023-03-01T03:33:13;94575.97;;;4.67;100.00
7918;BME280;4004;42.624;23.386;2023-03-01T03:35:42;94576.94;;;4.71;100.00
7918;BME280;4004;42.624;23.386;2023-03-01T03:38:11;94575.41;;;4.70;100.00
7918;BME280;4004;42.624;23.386;2023-03-01T03:40:44;94577.31;;;4.78;100.00
7918;BME280;4004;42.624;23.386;2023-03-01T03:43:13;94574.13;;;4.67;100.00
7918;BME280;4004;42.624;23.386;2023-03-01T03:45:40;94575.72;;;4.77;100.00
7918;BME280;4004;42.624;23.386;2023-03-01T03:48:08;94574.94;;;4.76;100.00
7918;BME280;4004;42.624;23.386;2023-03-01T03:50:37;94575.09;;;4.71;100.00
7918;BME280;4004;42.624;23.386;2023-03-01T03:53:07;94583.19;;;4.66;100.00
7918;BME280;4004;42.624;23.386;2023-03-01T03:55:34;94582.16;;;4.76;100.00
7918;BME280;4004;42.624;23.386;2023-03-01T03:58:05;94579.06;;;4.83;100.00
7918;BME280;4004;42.624;23.386;2023-03-01T04:00:34;94581.41;;;4.84;100.00
7918;BME280;4004;42.624;23.386;2023-03-01T04:03:02;94575.00;;;4.85;100.00
7918;BME280;4004;42.624;23.386;2023-03-01T04:05:29;94575.63;;;4.91;100.00
7918;BME280;4004;42.624;23.386;2023-03-01T04:07:57;94578.66;;;4.98;100.00
7918;BME280;4004;42.624;23.386;2023-03-01T04:10:34;94576.28;;;4.96;100.00
7918;BME280;4004;42.624;23.386;2023-03-01T04:13:01;94578.19;;;4.96;100.00
7918;BME280;4004;42.624;23.386;2023-03-01T04:15:28;94582.53;;;4.92;100.00
7918;BME280;4004;42.624;23.386;2023-03-01T04:17:55;94584.53;;;4.86;100.00
7918;BME280;4004;42.624;23.386;2023-03-01T04:20:24;94585.94;;;4.84;100.00
7918;BME280;4004;42.624;23.386;2023-03-01T04:22:52;94581.09;;;4.86;100.00
7918;BME280;4004;42.624;23.386;2023-03-01T04:25:20;94579.06;;;4.83;100.00
7918;BME280;4004;42.624;23.386;2023-03-01T04:27:47;94584.81;;;4.76;100.00
7918;BME280;4004;42.624;23.386;2023-03-01T04:30:14;94589.34;;;4.75;100.00
7918;BME280;4004;42.624;23.386;2023-03-01T04:32:41;94582.47;;;4.74;100.00
7918;BME280;4004;42.624;23.386;2023-03-01T04:35:08;94586.19;;;4.73;100.00
7918;BME280;4004;42.624;23.386;2023-03-01T04:37:35;94581.97;;;4.72;100.00
7918;BME280;4004;42.624;23.386;2023-03-01T04:40:03;94582.47;;;4.74;100.00
7918;BME280;4004;42.624;23.386;2023-03-01T04:42:39;94582.47;;;4.74;100.00
7918;BME280;4004;42.624;23.386;2023-03-01T04:45:07;94589.97;;;4.72;100.00
7918;BME280;4004;42.624;23.386;2023-03-01T04:47:39;94583.38;;;4.70;100.00
7918;BME280;4004;42.624;23.386;2023-03-01T04:50:07;94568.63;;;4.64;100.00
7918;BME280;4004;42.624;23.386;2023-03-01T04:52:34;94567.16;;;4.57;100.00
7918;BME280;4004;42.624;23.386;2023-03-01T04:55:01;94564.84;;;4.56;100.00
7918;BME280;4004;42.624;23.386;2023-03-01T04:57:29;94576.84;;;4.53;100.00
7918;BME280;4004;42.624;23.386;2023-03-01T04:59:57;94575.78;;;4.54;100.00
7918;BME280;4004;42.624;23.386;2023-03-01T05:02:24;94577.97;;;4.52;100.00
7918;BME280;4004;42.624;23.386;2023-03-01T05:04:51;94575.72;;;4.46;100.00
7918;BME280;4004;42.624;23.386;2023-03-01T05:07:17;94590.50;;;4.52;100.00
7918;BME280;4004;42.624;23.386;2023-03-01T05:09:45;94586.28;;;4.60;100.00
7918;BME280;4004;42.624;23.386;2023-03-01T05:12:12;94582.66;;;4.55;100.00
7918;BME280;4004;42.624;23.386;2023-03-01T05:14:39;94584.75;;;4.59;100.00
7918;BME280;4004;42.624;23.386;2023-03-01T05:17:07;94588.31;;;4.54;100.00
7918;BME280;4004;42.624;23.386;2023-03-01T05:19:34;94578.25;;;4.51;100.00
7918;BME280;4004;42.624;23.386;2023-03-01T05:22:01;94586.44;;;4.54;100.00
7918;BME280;4004;42.624;23.386;2023-03-01T05:24:29;94579.06;;;4.51;100.00
7918;BME280;4004;42.624;23.386;2023-03-01T05:26:56;94581.25;;;4.49;100.00
7918;BME280;4004;42.624;23.386;2023-03-01T05:29:24;94579.66;;;4.48;100.00
7918;BME280;4004;42.624;23.386;2023-03-01T05:31:52;94588.75;;;4.47;100.00
7918;BME280;4004;42.624;23.386;2023-03-01T05:34:23;94589.81;;;4.46;100.00
7918;BME280;4004;42.624;23.386;2023-03-01T05:36:50;94589.72;;;4.51;100.00
7918;BME280;4004;42.624;23.386;2023-03-01T05:39:19;94586.13;;;4.56;100.00
7918;BME280;4004;42.624;23.386;2023-03-01T05:41:46;94584.56;;;4.55;100.00
7918;BME280;4004;42.624;23.386;2023-03-01T05:44:13;94580.81;;;4.56;100.00
7918;BME280;4004;42.624;23.386;2023-03-01T05:46:40;94563.81;;;4.43;100.00
7918;BME280;4004;42.624;23.386;2023-03-01T05:49:06;94581.41;;;4.53;100.00
7918;BME280;4004;42.624;23.386;2023-03-01T05:51:34;94587.50;;;4.53;100.00
7918;BME280;4004;42.624;23.386;2023-03-01T05:54:01;94591.19;;;4.66;100.00
7918;BME280;4004;42.624;23.386;2023-03-01T05:56:32;94592.28;;;4.65;100.00
7918;BME280;4004;42.624;23.386;2023-03-01T05:58:59;94598.16;;;4.76;100.00
7918;BME280;4004;42.624;23.386;2023-03-01T06:01:25;94615.97;;;4.75;100.00
7918;BME280;4004;42.624;23.386;2023-03-01T06:03:52;94600.31;;;4.74;100.00
7918;BME280;4004;42.624;23.386;2023-03-01T06:06:19;94602.38;;;4.77;100.00
7918;BME280;4004;42.624;23.386;2023-03-01T06:08:47;94606.28;;;4.80;100.00
7918;BME280;4004;42.624;23.386;2023-03-01T06:11:14;94613.22;;;4.81;100.00
7918;BME280;4004;42.624;23.386;2023-03-01T06:13:41;94619.50;;;4.85;100.00
7918;BME280;4004;42.624;23.386;2023-03-01T06:16:09;94620.13;;;4.90;100.00
7918;BME280;4004;42.624;23.386;2023-03-01T06:18:36;94618.69;;;4.84;100.00
7918;BME280;4004;42.624;23.386;2023-03-01T06:21:03;94623.09;;;4.89;100.00
7918;BME280;4004;42.624;23.386;2023-03-01T06:23:31;94627.50;;;4.85;100.00
7918;BME280;4004;42.624;23.386;2023-03-01T06:26:00;94614.81;;;4.90;100.00
7918;BME280;4004;42.624;23.386;2023-03-01T06:28:26;94619.66;;;4.88;100.00
7918;BME280;4004;42.624;23.386;2023-03-01T06:30:53;94621.25;;;4.89;100.00
7918;BME280;4004;42.624;23.386;2023-03-01T06:33:20;94611.66;;;4.88;100.00
7918;BME280;4004;42.624;23.386;2023-03-01T06:35:49;94623.91;;;4.89;100.00
7918;BME280;4004;42.624;23.386;2023-03-01T06:38:16;94610.88;;;4.88;100.00
7918;BME280;4004;42.624;23.386;2023-03-01T06:40:44;94629.09;;;4.94;100.00
7918;BME280;4004;42.624;23.386;2023-03-01T06:43:12;94623.78;;;4.94;100.00
7918;BME280;4004;42.624;23.386;2023-03-01T06:45:39;94617.47;;;4.90;100.00
7918;BME280;4004;42.624;23.386;2023-03-01T06:48:07;94622.31;;;4.88;100.00
7918;BME280;4004;42.624;23.386;2023-03-01T06:50:34;94621.53;;;4.88;100.00
7918;BME280;4004;42.624;23.386;2023-03-01T06:53:01;94627.50;;;4.85;100.00
7918;BME280;4004;42.624;23.386;2023-03-01T06:55:28;94619.19;;;4.86;100.00
7918;BME280;4004;42.624;23.386;2023-03-01T06:57:55;94625.13;;;4.83;100.00
7918;BME280;4004;42.624;23.386;2023-03-01T07:00:25;94616.94;;;4.80;100.00
7918;BME280;4004;42.624;23.386;2023-03-01T07:02:52;94613.94;;;4.72;100.00
7918;BME280;4004;42.624;23.386;2023-03-01T07:05:19;94626.38;;;4.86;100.00
7918;BME280;4004;42.624;23.386;2023-03-01T07:07:46;94634.63;;;4.98;100.00
7918;BME280;4004;42.624;23.386;2023-03-01T07:10:12;94623.47;;;4.96;100.00
7918;BME280;4004;42.624;23.386;2023-03-01T07:12:39;94626.78;;;5.02;100.00
7918;BME280;4004;42.624;23.386;2023-03-01T07:15:08;94630.06;;;4.98;100.00
7918;BME280;4004;42.624;23.386;2023-03-01T07:17:37;94619.25;;;5.04;100.00
7918;BME280;4004;42.624;23.386;2023-03-01T07:20:04;94611.31;;;5.12;100.00
7918;BME280;4004;42.624;23.386;2023-03-01T07:22:31;94620.06;;;5.13;100.00
7918;BME280;4004;42.624;23.386;2023-03-01T07:24:58;94621.38;;;5.24;100.00
7918;BME280;4004;42.624;23.386;2023-03-01T07:27:25;94618.06;;;5.18;100.00
7918;BME280;4004;42.624;23.386;2023-03-01T07:29:51;94622.03;;;5.30;100.00
7918;BME280;4004;42.624;23.386;2023-03-01T07:32:18;94609.63;;;5.25;100.00
7918;BME280;4004;42.624;23.386;2023-03-01T07:34:46;94604.78;;;5.27;100.00
7918;BME280;4004;42.624;23.386;2023-03-01T07:37:13;94614.81;;;5.30;100.00
7918;BME280;4004;42.624;23.386;2023-03-01T07:39:40;94617.28;;;5.27;100.00
7918;BME280;4004;42.624;23.386;2023-03-01T07:42:07;94618.59;;;5.29;100.00
7918;BME280;4004;42.624;23.386;2023-03-01T07:44:34;94612.13;;;5.22;100.00
7918;BME280;4004;42.624;23.386;2023-03-01T07:47:01;94619.59;;;5.11;100.00
7918;BME280;4004;42.624;23.386;2023-03-01T07:49:27;94616.16;;;5.10;100.00
7918;BME280;4004;42.624;23.386;2023-03-01T07:51:55;94610.81;;;5.10;100.00
7918;BME280;4004;42.624;23.386;2023-03-01T07:54:22;94598.63;;;5.18;100.00
7918;BME280;4004;42.624;23.386;2023-03-01T07:56:49;94592.84;;;5.25;100.00
7918;BME280;4004;42.624;23.386;2023-03-01T07:59:16;94601.47;;;5.30;100.00
7918;BME280;4004;42.624;23.386;2023-03-01T08:01:43;94595.97;;;5.27;100.00
7918;BME280;4004;42.624;23.386;2023-03-01T08:04:09;94592.84;;;5.33;100.00
7918;BME280;4004;42.624;23.386;2023-03-01T08:06:36;94591.78;;;5.43;100.00
7918;BME280;4004;42.624;23.386;2023-03-01T08:09:04;94600.72;;;5.38;100.00
7918;BME280;4004;42.624;23.386;2023-03-01T08:11:32;94593.34;;;5.35;100.00
7918;BME280;4004;42.624;23.386;2023-03-01T08:13:58;94600.69;;;5.30;100.00
7918;BME280;4004;42.624;23.386;2023-03-01T08:16:25;94599.91;;;5.29;100.00
7918;BME280;4004;42.624;23.386;2023-03-01T08:18:52;94590.63;;;5.27;100.00
7918;BME280;4004;42.624;23.386;2023-03-01T08:21:21;94595.81;;;5.23;100.00
7918;BME280;4004;42.624;23.386;2023-03-01T08:23:48;94588.78;;;5.27;100.00
7918;BME280;4004;42.624;23.386;2023-03-01T08:26:19;94591.28;;;5.32;100.00
7918;BME280;4004;42.624;23.386;2023-03-01T08:28:47;94595.81;;;5.23;100.00
7918;BME280;4004;42.624;23.386;2023-03-01T08:31:18;94599.28;;;5.32;100.00
7918;BME280;4004;42.624;23.386;2023-03-01T08:33:45;94591.91;;;5.29;100.00
7918;BME280;4004;42.624;23.386;2023-03-01T08:36:16;94583.00;;;5.34;100.00
7918;BME280;4004;42.624;23.386;2023-03-01T08:38:43;94588.81;;;5.45;100.00
7918;BME280;4004;42.624;23.386;2023-03-01T08:41:11;94587.88;;;5.40;100.00
7918;BME280;4004;42.624;23.386;2023-03-01T08:43:39;94592.91;;;5.51;100.00
7918;BME280;4004;42.624;23.386;2023-03-01T08:46:06;94586.16;;;5.62;100.00
7918;BME280;4004;42.624;23.386;2023-03-01T08:48:32;94597.50;;;5.68;100.00
7918;BME280;4004;42.624;23.386;2023-03-01T08:51:07;94590.09;;;5.56;100.00
7918;BME280;4004;42.624;23.386;2023-03-01T08:53:34;94589.75;;;5.49;100.00
7918;BME280;4004;42.624;23.386;2023-03-01T08:56:00;94590.09;;;5.56;100.00
7918;BME280;4004;42.624;23.386;2023-03-01T08:58:28;94589.00;;;5.66;100.00
7918;BME280;4004;42.624;23.386;2023-03-01T09:00:56;94594.97;;;5.63;100.00
7918;BME280;4004;42.624;23.386;2023-03-01T09:03:23;94603.13;;;5.75;100.00
7918;BME280;4004;42.624;23.386;2023-03-01T09:05:51;94592.47;;;5.75;100.00
7918;BME280;4004;42.624;23.386;2023-03-01T09:08:18;94584.28;;;5.71;100.00
7918;BME280;4004;42.624;23.386;2023-03-01T09:10:45;94591.84;;;5.78;100.00
7918;BME280;4004;42.624;23.386;2023-03-01T09:13:12;94598.75;;;5.88;100.00
7918;BME280;4004;42.624;23.386;2023-03-01T09:15:39;94602.50;;;5.87;100.00
7918;BME280;4004;42.624;23.386;2023-03-01T09:18:07;94604.09;;;5.79;100.00
7918;BME280;4004;42.624;23.386;2023-03-01T09:20:34;94595.78;;;5.72;100.00
7918;BME280;4004;42.624;23.386;2023-03-01T09:23:01;94586.03;;;5.85;100.00
7918;BME280;4004;42.624;23.386;2023-03-01T09:25:27;94588.69;;;5.93;100.00
7918;BME280;4004;42.624;23.386;2023-03-01T09:27:54;94592.94;;;5.86;100.00
7918;BME280;4004;42.624;23.386;2023-03-01T09:30:21;94581.97;;;5.78;100.00
7918;BME280;4004;42.624;23.386;2023-03-01T09:32:49;94590.59;;;5.84;100.00
7918;BME280;4004;42.624;23.386;2023-03-01T09:35:17;94580.25;;;5.82;100.00
7918;BME280;4004;42.624;23.386;2023-03-01T09:37:45;94582.16;;;6.08;100.00
7918;BME280;4004;42.624;23.386;2023-03-01T09:40:14;94580.91;;;6.14;100.00
7918;BME280;4004;42.624;23.386;2023-03-01T09:42:48;94584.66;;;6.22;100.00
7918;BME280;4004;42.624;23.386;2023-03-01T09:45:25;94579.16;;;6.27;100.00
7918;BME280;4004;42.624;23.386;2023-03-01T09:47:52;94570.50;;;6.30;100.00
7918;BME280;4004;42.624;23.386;2023-03-01T09:50:22;94573.97;;;6.22;100.00
7918;BME280;4004;42.624;23.386;2023-03-01T09:52:55;94573.50;;;6.29;100.00
7918;BME280;4004;42.624;23.386;2023-03-01T09:55:30;94576.81;;;6.26;100.00
7918;BME280;4004;42.624;23.386;2023-03-01T09:58:02;94567.69;;;6.27;100.00
7918;BME280;4004;42.624;23.386;2023-03-01T10:00:37;94561.38;;;6.40;100.00
7918;BME280;4004;42.624;23.386;2023-03-01T10:03:12;94570.66;;;6.42;100.00
7918;BME280;4004;42.624;23.386;2023-03-01T10:05:50;94567.53;;;6.32;100.00
7918;BME280;4004;42.624;23.386;2023-03-01T10:08:27;94557.94;;;6.22;100.00
7918;BME280;4004;42.624;23.386;2023-03-01T10:10:57;94551.06;;;6.21;100.00
7918;BME280;4004;42.624;23.386;2023-03-01T10:13:27;94556.09;;;6.22;100.00
7918;BME280;4004;42.624;23.386;2023-03-01T10:15:57;94576.16;;;6.20;100.00
7918;BME280;4004;42.624;23.386;2023-03-01T10:18:30;94563.00;;;6.06;100.00
7918;BME280;4004;42.624;23.386;2023-03-01T10:21:02;94554.97;;;6.06;100.00
7918;BME280;4004;42.624;23.386;2023-03-01T10:23:31;94537.72;;;6.12;100.00
7918;BME280;4004;42.624;23.386;2023-03-01T10:26:09;94538.19;;;6.14;100.00
7918;BME280;4004;42.624;23.386;2023-03-01T10:28:47;94543.81;;;6.21;100.00
7918;BME280;4004;42.624;23.386;2023-03-01T10:31:20;94529.22;;;6.19;100.00
7918;BME280;4004;42.624;23.386;2023-03-01T10:33:53;94538.31;;;6.18;100.00
7918;BME280;4004;42.624;23.386;2023-03-01T10:36:22;94539.25;;;6.22;100.00
7918;BME280;4004;42.624;23.386;2023-03-01T10:38:51;94535.34;;;6.19;100.00
7918;BME280;4004;42.624;23.386;2023-03-01T10:41:20;94532.66;;;6.19;100.00
7918;BME280;4004;42.624;23.386;2023-03-01T10:43:51;94522.28;;;6.27;100.00
7918;BME280;4004;42.624;23.386;2023-03-01T10:46:23;94529.22;;;6.28;100.00
7918;BME280;4004;42.624;23.386;2023-03-01T10:49:06;94507.97;;;6.40;100.00
7918;BME280;4004;42.624;23.386;2023-03-01T10:51:34;94533.69;;;6.53;100.00
7918;BME280;4004;42.624;23.386;2023-03-01T10:54:01;94527.25;;;6.54;100.00
7918;BME280;4004;42.624;23.386;2023-03-01T10:56:33;94516.22;;;6.64;100.00
7918;BME280;4004;42.624;23.386;2023-03-01T10:59:22;94517.50;;;6.58;100.00
7918;BME280;4004;42.624;23.386;2023-03-01T11:02:02;94509.19;;;6.51;100.00
7918;BME280;4004;42.624;23.386;2023-03-01T11:04:29;94521.75;;;6.51;100.00
7918;BME280;4004;42.624;23.386;2023-03-01T11:07:01;94509.66;;;6.53;100.00
7918;BME280;4004;42.624;23.386;2023-03-01T11:09:32;94521.13;;;6.54;100.00
7918;BME280;4004;42.624;23.386;2023-03-01T11:12:04;94525.38;;;6.55;100.00
7918;BME280;4004;42.624;23.386;2023-03-01T11:14:35;94516.41;;;6.51;100.00
7918;BME280;4004;42.624;23.386;2023-03-01T11:17:04;94512.78;;;6.55;100.00
7918;BME280;4004;42.624;23.386;2023-03-01T11:19:32;94510.28;;;6.50;100.00
7918;BME280;4004;42.624;23.386;2023-03-01T11:22:03;94516.13;;;6.43;100.00
7918;BME280;4004;42.624;23.386;2023-03-01T11:24:37;94515.19;;;6.39;100.00
7918;BME280;4004;42.624;23.386;2023-03-01T11:27:10;94519.13;;;6.42;100.00
7918;BME280;4004;42.624;23.386;2023-03-01T11:29:43;94517.25;;;6.34;100.00
7918;BME280;4004;42.624;23.386;2023-03-01T11:32:13;94518.63;;;6.40;100.00
7918;BME280;4004;42.624;23.386;2023-03-01T11:34:44;94506.69;;;6.46;100.00
7918;BME280;4004;42.624;23.386;2023-03-01T11:37:22;94508.75;;;6.49;100.00
7918;BME280;4004;42.624;23.386;2023-03-01T11:39:58;94507.16;;;6.48;100.00
7918;BME280;4004;42.624;23.386;2023-03-01T11:42:34;94501.28;;;6.63;100.00
7918;BME280;4004;42.624;23.386;2023-03-01T11:45:09;94499.88;;;6.66;100.00
7918;BME280;4004;42.624;23.386;2023-03-01T11:47:53;94505.03;;;6.71;100.00
7918;BME280;4004;42.624;23.386;2023-03-01T11:50:28;94494.75;;;6.82;100.00
7918;BME280;4004;42.624;23.386;2023-03-01T11:56:15;94473.41;;;6.43;100.00
7918;BME280;4004;42.624;23.386;2023-03-01T11:59:03;94477.13;;;6.51;100.00
7918;BME280;4004;42.624;23.386;2023-03-01T12:01:40;94474.22;;;6.74;100.00
7918;BME280;4004;42.624;23.386;2023-03-01T12:07:38;94485.50;;;7.09;100.00
7918;BME280;4004;42.624;23.386;2023-03-01T12:10:20;94471.81;;;7.11;100.00
7918;BME280;4004;42.624;23.386;2023-03-01T12:15:49;94470.69;;;7.20;100.00
7918;BME280;4004;42.624;23.386;2023-03-01T12:18:47;94459.25;;;7.32;100.00
7918;BME280;4004;42.624;23.386;2023-03-01T12:21:36;94470.53;;;7.38;100.00
7918;BME280;4004;42.624;23.386;2023-03-01T12:27:26;94471.38;;;7.51;100.00
7918;BME280;4004;42.624;23.386;2023-03-01T12:30:06;94464.50;;;7.50;100.00
7918;BME280;4004;42.624;23.386;2023-03-01T12:32:48;94462.97;;;7.40;100.00
7918;BME280;4004;42.624;23.386;2023-03-01T12:35:38;94463.16;;;7.35;100.00
7918;BME280;4004;42.624;23.386;2023-03-01T12:38:24;94465.44;;;7.24;100.00
7918;BME280;4004;42.624;23.386;2023-03-01T12:41:15;94451.81;;;7.38;100.00
7918;BME280;4004;42.624;23.386;2023-03-01T12:43:52;94464.34;;;7.25;100.00
7918;BME280;4004;42.624;23.386;2023-03-01T12:46:31;94453.19;;;7.23;100.00
7918;BME280;4004;42.624;23.386;2023-03-01T12:49:08;94451.66;;;7.13;100.00
7918;BME280;4004;42.624;23.386;2023-03-01T12:51:37;94454.69;;;7.12;100.00
7918;BME280;4004;42.624;23.386;2023-03-01T12:54:10;94454.06;;;7.06;100.00
7918;BME280;4004;42.624;23.386;2023-03-01T12:56:38;94457.94;;;7.17;100.00
7918;BME280;4004;42.624;23.386;2023-03-01T12:59:13;94448.59;;;7.02;100.00
7918;BME280;4004;42.624;23.386;2023-03-01T13:01:46;94451.03;;;7.16;100.00
7918;BME280;4004;42.624;23.386;2023-03-01T13:04:26;94444.03;;;7.24;100.00
7918;BME280;4004;42.624;23.386;2023-03-01T13:07:01;94448.75;;;7.27;100.00
7918;BME280;4004;42.624;23.386;2023-03-01T13:09:36;94448.69;;;7.15;100.00
7918;BME280;4004;42.624;23.386;2023-03-01T13:15:24;94455.03;;;6.80;100.00
7918;BME280;4004;42.624;23.386;2023-03-01T13:17:53;94458.63;;;6.76;100.00
7918;BME280;4004;42.624;23.386;2023-03-01T13:20:24;94458.97;;;6.74;100.00
7918;BME280;4004;42.624;23.386;2023-03-01T13:23:02;94455.91;;;6.84;100.00
7918;BME280;4004;42.624;23.386;2023-03-01T13:25:29;94449.72;;;6.72;100.00
7918;BME280;4004;42.624;23.386;2023-03-01T13:28:38;94470.13;;;6.76;100.00
7918;BME280;4004;42.624;23.386;2023-03-01T13:31:08;94457.28;;;6.70;100.00
7918;BME280;4004;42.624;23.386;2023-03-01T13:33:43;94469.97;;;6.73;100.00
7918;BME280;4004;42.624;23.386;2023-03-01T13:36:11;94459.63;;;6.62;100.00
7918;BME280;4004;42.624;23.386;2023-03-01T13:39:00;94455.69;;;6.69;100.00
7918;BME280;4004;42.624;23.386;2023-03-01T13:41:49;94456.16;;;6.71;100.00